Time;durP1;ratioP1;P1;durP2;ratioP2;P2;SDS_P1;SDS_P2;PMS_P1;PMS_P2;Temp;Humidity;BMP_temperature;BMP_pressure;BME280_temperature;BME280_humidity;BME280_pressure;Samples;Min_cycle;Max_cycle;Signal;HPM_P1;HPM_P2
2022/01/20 00:00:02;;;;;;;;;;;;;;;;;;5071191;28;20459;-68
2022/01/20 00:02:34;;;;;;;;;;;;;;;;;;5065426;28;19924;-67
2022/01/20 00:05:11;;;;;;;;;;;;;;;;;;5071675;28;20500;-68
2022/01/20 00:07:49;;;;;;;;;;;;;;;;;;5070929;28;19930;-68
2022/01/20 00:26:49;;;;;;;;;;;;;;;;;;5063265;28;19967;-68
2022/01/20 00:29:24;;;;;;;;;;;;;;;;;;5058955;28;19932;-67
2022/01/20 00:32:04;;;;;;;;;;;;;;;;;;5064216;28;19933;-67
2022/01/20 00:34:53;;;;;;;;;;;;;;;;;;5060538;28;19925;-68
2022/01/20 00:37:19;;;;;;;;;;;;;;;;;;5069004;28;20413;-67
2022/01/20 00:39:46;;;;;;;;;;;;;;;;;;5059595;28;19924;-67
2022/01/20 00:42:13;;;;;;;;;;;;;;;;;;5062342;28;19974;-67
2022/01/20 00:44:40;;;;;;;;;;;;;;;;;;5066873;28;19986;-66
2022/01/20 00:47:07;;;;;;;;;;;;;;;;;;5061502;28;19925;-67
2022/01/20 00:49:34;;;;;;;;;;;;;;;;;;5060299;28;19932;-68
2022/01/20 00:52:01;;;;;;;;;;;;;;;;;;5056201;28;19931;-67
2022/01/20 00:54:28;;;;;;;;;;;;;;;;;;5059574;28;20373;-67
2022/01/20 00:56:55;;;;;;;;;;;;;;;;;;5066915;28;19925;-68
2022/01/20 00:59:22;;;;;;;;;;;;;;;;;;5063367;28;19924;-68
2022/01/20 01:01:49;;;;;;;;;;;;;;;;;;5064559;28;19924;-68
2022/01/20 01:04:16;;;;;;;;;;;;;;;;;;5061842;28;19954;-67
2022/01/20 01:07:01;;;;;;;;;;;;;;;;;;5058578;28;19935;-67
2022/01/20 01:09:28;;;;;;;;;;;;;;;;;;5068388;28;19970;-67
2022/01/20 01:11:59;;;;;;;;;;;;;;;;;;5065670;28;20018;-68
2022/01/20 01:14:29;;;;;;;;;;;;;;;;;;5061661;28;20016;-67
2022/01/20 01:22:24;;;;;;;;;;;;;;;;;;5019373;28;19929;-72
2022/01/20 01:24:52;;;;;;;;;;;;;;;;;;5022452;28;20015;-72
2022/01/20 01:27:19;;;;;;;;;;;;;;;;;;5022978;28;19925;-72
2022/01/20 01:30:02;;;;;;;;;;;;;;;;;;5018062;28;19929;-72
2022/01/20 01:32:37;;;;;;;;;;;;;;;;;;5027919;28;20378;-72
2022/01/20 01:35:07;;;;;;;;;;;;;;;;;;5027645;28;19929;-72
2022/01/20 01:38:23;;;;;;;;;;;;;;;;;;5029920;28;19931;-72
2022/01/20 01:40:23;;;;;;;;;;;;;;;;;;5027104;28;20047;-72
2022/01/20 01:42:51;;;;;;;;;;;;;;;;;;5026516;28;19951;-72
2022/01/20 01:45:18;;;;;;;;;;;;;;;;;;5029113;28;19995;-71
2022/01/20 01:47:45;;;;;;;;;;;;;;;;;;5028261;28;19926;-72
2022/01/20 01:50:12;;;;;;;;;;;;;;;;;;5028472;28;19925;-72
2022/01/20 01:52:39;;;;;;;;;;;;;;;;;;5025397;28;20302;-71
2022/01/20 01:55:06;;;;;;;;;;;;;;;;;;5028710;28;19928;-71
2022/01/20 01:57:33;;;;;;;;;;;;;;;;;;5026799;28;20303;-72
2022/01/20 02:00:00;;;;;;;;;;;;;;;;;;5027231;28;19925;-72
2022/01/20 02:02:28;;;;;;;;;;;;;;;;;;5026975;28;19932;-72
2022/01/20 02:04:55;;;;;;;;;;;;;;;;;;5028667;28;19971;-71
2022/01/20 02:07:46;;;;;;;;;;;;;;;;;;5027913;28;20062;-71
2022/01/20 02:18:42;;;;;;;;;;;;;;;;;;5028230;28;19982;-71
2022/01/20 02:21:09;;;;;;;;;;;;;;;;;;5023839;28;19929;-71
2022/01/20 02:23:36;;;;;;;;;;;;;;;;;;5027492;28;19940;-73
2022/01/20 02:26:03;;;;;;;;;;;;;;;;;;5028672;28;19944;-72
2022/01/20 02:28:30;;;;;;;;;;;;;;;;;;5027454;28;19926;-71
2022/01/20 02:30:57;;;;;;;;;;;;;;;;;;5031033;28;20470;-72
2022/01/20 02:33:24;;;;;;;;;;;;;;;;;;5031653;28;20000;-72
2022/01/20 02:35:51;;;;;;;;;;;;;;;;;;5031246;28;20122;-72
2022/01/20 02:38:23;;;;;;;;;;;;;;;;;;5031915;28;19937;-72
2022/01/20 02:46:20;;;;;;;;;;;;;;;;;;5032502;28;20634;-71
2022/01/20 02:48:46;;;;;;;;;;;;;;;;;;5028868;28;19925;-72
2022/01/20 02:51:13;;;;;;;;;;;;;;;;;;5028494;28;19933;-71
2022/01/20 02:53:40;;;;;;;;;;;;;;;;;;5030153;28;20295;-72
2022/01/20 02:56:07;;;;;;;;;;;;;;;;;;5032584;28;19958;-72
2022/01/20 02:58:34;;;;;;;;;;;;;;;;;;5029704;28;19931;-71
2022/01/20 03:01:01;;;;;;;;;;;;;;;;;;5031392;28;19925;-71
2022/01/20 03:03:28;;;;;;;;;;;;;;;;;;5029436;28;20275;-72
2022/01/20 03:05:55;;;;;;;;;;;;;;;;;;5032280;28;19932;-72
2022/01/20 03:08:22;;;;;;;;;;;;;;;;;;5030577;28;19925;-71
2022/01/20 03:10:49;;;;;;;;;;;;;;;;;;5031480;28;19929;-72
2022/01/20 03:13:16;;;;;;;;;;;;;;;;;;5031120;28;19925;-72
2022/01/20 03:15:43;;;;;;;;;;;;;;;;;;5031006;28;19944;-71
2022/01/20 03:18:10;;;;;;;;;;;;;;;;;;5029726;28;20020;-70
2022/01/20 03:20:37;;;;;;;;;;;;;;;;;;5030021;28;19925;-71
2022/01/20 03:23:04;;;;;;;;;;;;;;;;;;5028627;28;19944;-72
2022/01/20 03:25:30;;;;;;;;;;;;;;;;;;5031547;28;20291;-72
2022/01/20 03:27:57;;;;;;;;;;;;;;;;;;5030447;28;19925;-71
2022/01/20 03:30:24;;;;;;;;;;;;;;;;;;5029493;28;19925;-72
2022/01/20 03:32:51;;;;;;;;;;;;;;;;;;5029852;28;19926;-70
2022/01/20 03:35:18;;;;;;;;;;;;;;;;;;5030170;28;19932;-71
2022/01/20 03:37:45;;;;;;;;;;;;;;;;;;5030518;28;20383;-71
2022/01/20 03:40:12;;;;;;;;;;;;;;;;;;5027903;28;19925;-71
2022/01/20 03:42:39;;;;;;;;;;;;;;;;;;5027170;28;20007;-71
2022/01/20 03:45:06;;;;;;;;;;;;;;;;;;5027349;28;19929;-71
2022/01/20 03:47:33;;;;;;;;;;;;;;;;;;5029894;28;19925;-71
2022/01/20 03:50:09;;;;;;;;;;;;;;;;;;5029810;28;19926;-71
2022/01/20 03:52:36;;;;;;;;;;;;;;;;;;5028270;28;19936;-71
2022/01/20 03:55:06;;;;;;;;;;;;;;;;;;5030266;28;20111;-72
2022/01/20 03:57:33;;;;;;;;;;;;;;;;;;5029890;28;19953;-71
2022/01/20 04:00:00;;;;;;;;;;;;;;;;;;5029162;28;19925;-72
2022/01/20 04:02:27;;;;;;;;;;;;;;;;;;5027606;28;19929;-73
2022/01/20 04:04:54;;;;;;;;;;;;;;;;;;5031445;28;19933;-70
2022/01/20 04:07:21;;;;;;;;;;;;;;;;;;5028221;28;20379;-72
2022/01/20 04:09:48;;;;;;;;;;;;;;;;;;5029775;28;19925;-72
2022/01/20 04:12:15;;;;;;;;;;;;;;;;;;5030203;28;19931;-71
2022/01/20 04:14:46;;;;;;;;;;;;;;;;;;5030306;28;20429;-72
2022/01/20 04:17:18;;;;;;;;;;;;;;;;;;5029877;28;19929;-72
2022/01/20 04:19:45;;;;;;;;;;;;;;;;;;5026217;28;19926;-71
2022/01/20 04:22:12;;;;;;;;;;;;;;;;;;5027352;28;19925;-71
2022/01/20 04:24:39;;;;;;;;;;;;;;;;;;5031004;28;20379;-71
2022/01/20 04:27:06;;;;;;;;;;;;;;;;;;5028915;28;19933;-73
2022/01/20 04:29:34;;;;;;;;;;;;;;;;;;5029081;28;19932;-72
2022/01/20 04:32:00;;;;;;;;;;;;;;;;;;5027973;28;19983;-71
2022/01/20 04:34:27;;;;;;;;;;;;;;;;;;5025466;28;19929;-71
2022/01/20 04:36:55;;;;;;;;;;;;;;;;;;5028596;28;19925;-72
2022/01/20 04:39:25;;;;;;;;;;;;;;;;;;5027875;28;19925;-71
2022/01/20 04:41:53;;;;;;;;;;;;;;;;;;5028506;28;19925;-72
2022/01/20 04:44:32;;;;;;;;;;;;;;;;;;5029958;28;19925;-72
2022/01/20 04:47:09;;;;;;;;;;;;;;;;;;5028895;28;19925;-72
2022/01/20 04:57:46;;;;;;;;;;;;;;;;;;5025544;28;19999;-72
2022/01/20 05:00:13;;;;;;;;;;;;;;;;;;5025124;28;19952;-72
2022/01/20 05:02:39;;;;;;;;;;;;;;;;;;5026608;28;20382;-72
2022/01/20 05:05:08;;;;;;;;;;;;;;;;;;5028215;28;19925;-72
2022/01/20 05:07:35;;;;;;;;;;;;;;;;;;5027150;28;19926;-71
2022/01/20 05:10:06;;;;;;;;;;;;;;;;;;5027074;28;19940;-73
2022/01/20 05:12:49;;;;;;;;;;;;;;;;;;5029298;28;20349;-72
2022/01/20 05:15:16;;;;;;;;;;;;;;;;;;5025499;28;19932;-72
2022/01/20 05:17:43;;;;;;;;;;;;;;;;;;5026939;28;20402;-72
2022/01/20 05:20:10;;;;;;;;;;;;;;;;;;5025753;28;19925;-72
2022/01/20 05:22:37;;;;;;;;;;;;;;;;;;5024885;28;19935;-72
2022/01/20 05:25:03;;;;;;;;;;;;;;;;;;5025858;28;20264;-72
2022/01/20 05:27:30;;;;;;;;;;;;;;;;;;5028653;28;19932;-72
2022/01/20 05:29:57;;;;;;;;;;;;;;;;;;5024463;28;20302;-72
2022/01/20 05:32:24;;;;;;;;;;;;;;;;;;5028003;28;19931;-72
2022/01/20 05:34:51;;;;;;;;;;;;;;;;;;5026631;28;19924;-73
2022/01/20 05:37:18;;;;;;;;;;;;;;;;;;5026800;28;20302;-72
2022/01/20 05:39:45;;;;;;;;;;;;;;;;;;5025561;28;19926;-72
2022/01/20 05:42:12;;;;;;;;;;;;;;;;;;5027305;28;20036;-71
2022/01/20 05:44:39;;;;;;;;;;;;;;;;;;5027857;28;19925;-72
2022/01/20 05:47:10;;;;;;;;;;;;;;;;;;5030142;28;19932;-72
2022/01/20 05:49:37;;;;;;;;;;;;;;;;;;5025690;28;19933;-72
2022/01/20 05:52:04;;;;;;;;;;;;;;;;;;5027195;28;19932;-72
2022/01/20 05:54:31;;;;;;;;;;;;;;;;;;5027544;28;19948;-72
2022/01/20 05:56:58;;;;;;;;;;;;;;;;;;5029919;28;20296;-72
2022/01/20 05:59:25;;;;;;;;;;;;;;;;;;5026493;28;19932;-71
2022/01/20 06:01:55;;;;;;;;;;;;;;;;;;5028825;28;19936;-72
2022/01/20 06:04:22;;;;;;;;;;;;;;;;;;5032170;28;19983;-72
2022/01/20 06:06:49;;;;;;;;;;;;;;;;;;5032645;28;19948;-72
2022/01/20 06:09:16;;;;;;;;;;;;;;;;;;5029504;28;19935;-71
2022/01/20 06:11:43;;;;;;;;;;;;;;;;;;5030323;28;19925;-71
2022/01/20 06:14:10;;;;;;;;;;;;;;;;;;5031413;28;19929;-70
2022/01/20 06:16:38;;;;;;;;;;;;;;;;;;5032126;28;19933;-71
2022/01/20 06:19:05;;;;;;;;;;;;;;;;;;5029462;28;19925;-72
2022/01/20 06:21:32;;;;;;;;;;;;;;;;;;5027747;28;19929;-70
2022/01/20 06:23:59;;;;;;;;;;;;;;;;;;5029356;28;20454;-71
2022/01/20 06:26:26;;;;;;;;;;;;;;;;;;5033422;28;19929;-72
2022/01/20 06:28:53;;;;;;;;;;;;;;;;;;5029918;28;19948;-73
2022/01/20 06:31:20;;;;;;;;;;;;;;;;;;5030611;28;19925;-71
2022/01/20 06:33:47;;;;;;;;;;;;;;;;;;5030575;28;20323;-71
2022/01/20 06:36:14;;;;;;;;;;;;;;;;;;5032257;28;20341;-71
2022/01/20 06:38:42;;;;;;;;;;;;;;;;;;5027760;28;19930;-71
2022/01/20 06:41:08;;;;;;;;;;;;;;;;;;5029023;28;19932;-72
2022/01/20 06:43:35;;;;;;;;;;;;;;;;;;5029517;28;20299;-72
2022/01/20 06:46:02;;;;;;;;;;;;;;;;;;5032141;28;19932;-72
2022/01/20 06:48:29;;;;;;;;;;;;;;;;;;5029681;28;19948;-72
2022/01/20 06:50:56;;;;;;;;;;;;;;;;;;5030250;28;20382;-72
2022/01/20 06:53:23;;;;;;;;;;;;;;;;;;5027798;28;19932;-72
2022/01/20 06:55:50;;;;;;;;;;;;;;;;;;5033204;28;19932;-71
2022/01/20 06:58:17;;;;;;;;;;;;;;;;;;5029914;28;19933;-71
2022/01/20 07:00:44;;;;;;;;;;;;;;;;;;5030350;28;19956;-71
2022/01/20 07:03:11;;;;;;;;;;;;;;;;;;5030588;28;19929;-71
2022/01/20 07:05:38;;;;;;;;;;;;;;;;;;5031066;28;19929;-72
2022/01/20 07:08:05;;;;;;;;;;;;;;;;;;5027506;28;19929;-71
2022/01/20 07:10:32;;;;;;;;;;;;;;;;;;5030609;28;19929;-71
2022/01/20 07:12:58;;;;;;;;;;;;;;;;;;5031651;28;19932;-72
2022/01/20 07:15:25;;;;;;;;;;;;;;;;;;5026100;28;19936;-71
2022/01/20 07:17:52;;;;;;;;;;;;;;;;;;5023848;28;19933;-71
2022/01/20 07:20:19;;;;;;;;;;;;;;;;;;5031385;22;19929;-68
2022/01/20 07:22:46;;;;;;;;;;;;;;;;;;5055470;28;19956;-69
2022/01/20 07:25:13;;;;;;;;;;;;;;;;;;5058546;28;20298;-70
2022/01/20 07:27:40;;;;;;;;;;;;;;;;;;5064296;28;19928;-69
2022/01/20 07:30:07;;;;;;;;;;;;;;;;;;5053976;28;19928;-69
2022/01/20 07:32:34;;;;;;;;;;;;;;;;;;5040452;28;20292;-68
2022/01/20 07:35:01;;;;;;;;;;;;;;;;;;5030786;28;19937;-68
2022/01/20 07:37:28;;;;;;;;;;;;;;;;;;5044518;28;20015;-68
2022/01/20 07:39:55;;;;;;;;;;;;;;;;;;5040009;28;19943;-68
2022/01/20 07:42:22;;;;;;;;;;;;;;;;;;5046824;28;20477;-68
2022/01/20 07:44:48;;;;;;;;;;;;;;;;;;5049650;28;19940;-68
2022/01/20 07:47:16;;;;;;;;;;;;;;;;;;5043316;28;19925;-67
2022/01/20 07:49:43;;;;;;;;;;;;;;;;;;5046181;28;20002;-68
2022/01/20 07:52:10;;;;;;;;;;;;;;;;;;5046374;28;20295;-68
2022/01/20 07:54:37;;;;;;;;;;;;;;;;;;5048273;28;19924;-67
2022/01/20 07:57:05;;;;;;;;;;;;;;;;;;5051315;28;20294;-68
2022/01/20 07:59:32;;;;;;;;;;;;;;;;;;5047234;28;19931;-68
2022/01/20 08:01:59;;;;;;;;;;;;;;;;;;5048393;28;20015;-68
2022/01/20 08:04:26;;;;;;;;;;;;;;;;;;5042236;28;19925;-68
2022/01/20 08:06:53;;;;;;;;;;;;;;;;;;5043998;28;19924;-69
2022/01/20 08:09:22;;;;;;;;;;;;;;;;;;5048614;28;19935;-68
2022/01/20 08:11:49;;;;;;;;;;;;;;;;;;5046861;28;19991;-68
2022/01/20 08:14:16;;;;;;;;;;;;;;;;;;5042657;28;20428;-68
2022/01/20 08:16:43;;;;;;;;;;;;;;;;;;5050090;28;19932;-68
2022/01/20 08:19:09;;;;;;;;;;;;;;;;;;5044217;28;19929;-68
2022/01/20 08:21:36;;;;;;;;;;;;;;;;;;5041740;28;19932;-69
2022/01/20 08:24:03;;;;;;;;;;;;;;;;;;5045442;28;19963;-69
2022/01/20 08:26:41;;;;;;;;;;;;;;;;;;5043703;28;20200;-69
2022/01/20 08:29:08;;;;;;;;;;;;;;;;;;5044076;28;20035;-68
2022/01/20 08:31:34;;;;;;;;;;;;;;;;;;5045099;28;19925;-69
2022/01/20 08:34:01;;;;;;;;;;;;;;;;;;5049505;28;19931;-69
2022/01/20 08:36:28;;;;;;;;;;;;;;;;;;5046623;28;19986;-69
2022/01/20 08:38:55;;;;;;;;;;;;;;;;;;5044581;28;19929;-67
2022/01/20 08:41:22;;;;;;;;;;;;;;;;;;5045097;28;19924;-66
2022/01/20 08:43:49;;;;;;;;;;;;;;;;;;5049253;28;19933;-69
2022/01/20 08:46:20;;;;;;;;;;;;;;;;;;5044902;28;19927;-67
2022/01/20 08:48:46;;;;;;;;;;;;;;;;;;5047397;28;19925;-68
2022/01/20 08:51:13;;;;;;;;;;;;;;;;;;5046556;28;19929;-69
2022/01/20 08:53:40;;;;;;;;;;;;;;;;;;5041097;28;19929;-68
2022/01/20 08:56:08;;;;;;;;;;;;;;;;;;5044334;28;19935;-68
2022/01/20 08:58:35;;;;;;;;;;;;;;;;;;5043061;28;19925;-68
2022/01/20 09:01:03;;;;;;;;;;;;;;;;;;5040583;28;19929;-67
2022/01/20 09:03:32;;;;;;;;;;;;;;;;;;5046424;28;19943;-68
2022/01/20 09:05:59;;;;;;;;;;;;;;;;;;5044575;28;19944;-68
2022/01/20 09:08:26;;;;;;;;;;;;;;;;;;5044201;28;19932;-68
2022/01/20 09:10:55;;;;;;;;;;;;;;;;;;5044909;28;19931;-68
2022/01/20 09:16:06;;;;;;;;;;;;;;;;;;5020455;28;19964;-68
2022/01/20 09:18:33;;;;;;;;;;;;;;;;;;5042677;28;19925;-69
2022/01/20 09:21:00;;;;;;;;;;;;;;;;;;5045675;28;19933;-69
2022/01/20 09:23:27;;;;;;;;;;;;;;;;;;5041449;28;19929;-69
2022/01/20 09:25:53;;;;;;;;;;;;;;;;;;5047900;28;19925;-69
2022/01/20 09:28:21;;;;;;;;;;;;;;;;;;5044623;28;19935;-69
2022/01/20 09:30:49;;;;;;;;;;;;;;;;;;5042488;28;20357;-69
2022/01/20 09:33:25;;;;;;;;;;;;;;;;;;5047195;28;19936;-69
2022/01/20 09:35:52;;;;;;;;;;;;;;;;;;5048249;28;19925;-68
2022/01/20 09:38:19;;;;;;;;;;;;;;;;;;5045814;28;19925;-70
2022/01/20 09:40:45;;;;;;;;;;;;;;;;;;5049997;28;19932;-67
2022/01/20 09:43:14;;;;;;;;;;;;;;;;;;5051511;28;20393;-68
2022/01/20 09:45:41;;;;;;;;;;;;;;;;;;5049861;28;20011;-68
2022/01/20 09:48:09;;;;;;;;;;;;;;;;;;5048715;28;19925;-68
2022/01/20 09:50:36;;;;;;;;;;;;;;;;;;5045400;28;19947;-68
2022/01/20 09:53:03;;;;;;;;;;;;;;;;;;5051662;28;19925;-68
2022/01/20 09:55:30;;;;;;;;;;;;;;;;;;5046952;28;19935;-68
2022/01/20 09:57:57;;;;;;;;;;;;;;;;;;5049509;28;19929;-69
2022/01/20 10:00:24;;;;;;;;;;;;;;;;;;5049020;28;19924;-68
2022/01/20 10:02:51;;;;;;;;;;;;;;;;;;5048420;28;19925;-69
2022/01/20 10:05:18;;;;;;;;;;;;;;;;;;5048346;28;20283;-68
2022/01/20 10:07:45;;;;;;;;;;;;;;;;;;5044778;28;19932;-68
2022/01/20 10:10:11;;;;;;;;;;;;;;;;;;5050469;28;20016;-67
2022/01/20 10:12:38;;;;;;;;;;;;;;;;;;5048273;28;19925;-68
2022/01/20 10:15:11;;;;;;;;;;;;;;;;;;5053703;28;19947;-68
2022/01/20 10:17:38;;;;;;;;;;;;;;;;;;5048767;28;20081;-68
2022/01/20 10:20:05;;;;;;;;;;;;;;;;;;5052363;28;20019;-67
2022/01/20 10:22:33;;;;;;;;;;;;;;;;;;5047710;28;19925;-68
2022/01/20 10:25:01;;;;;;;;;;;;;;;;;;5047276;28;20359;-68
2022/01/20 10:27:28;;;;;;;;;;;;;;;;;;5044464;28;19928;-70
2022/01/20 10:29:55;;;;;;;;;;;;;;;;;;5047731;28;19978;-68
2022/01/20 10:32:22;;;;;;;;;;;;;;;;;;5044899;28;19931;-68
2022/01/20 10:34:49;;;;;;;;;;;;;;;;;;5051952;28;20516;-68
2022/01/20 10:37:19;;;;;;;;;;;;;;;;;;5045925;28;19926;-68
2022/01/20 10:39:46;;;;;;;;;;;;;;;;;;5051472;28;20368;-68
2022/01/20 10:42:13;;;;;;;;;;;;;;;;;;5049964;28;19972;-68
2022/01/20 10:44:40;;;;;;;;;;;;;;;;;;5052663;28;19928;-67
2022/01/20 10:47:07;;;;;;;;;;;;;;;;;;5048942;28;19935;-68
2022/01/20 10:49:33;;;;;;;;;;;;;;;;;;5047556;28;19931;-68
2022/01/20 10:52:00;;;;;;;;;;;;;;;;;;5045184;28;19929;-67
2022/01/20 10:54:27;;;;;;;;;;;;;;;;;;5049638;28;19924;-67
2022/01/20 10:56:54;;;;;;;;;;;;;;;;;;5033056;28;20379;-67
2022/01/20 10:59:21;;;;;;;;;;;;;;;;;;5041186;28;19936;-67
2022/01/20 11:01:48;;;;;;;;;;;;;;;;;;5038710;28;19925;-67
2022/01/20 11:04:15;;;;;;;;;;;;;;;;;;5040861;28;20298;-68
2022/01/20 11:06:43;;;;;;;;;;;;;;;;;;5036044;28;19936;-67
2022/01/20 11:09:10;;;;;;;;;;;;;;;;;;5042692;28;20023;-67
2022/01/20 11:11:37;;;;;;;;;;;;;;;;;;5045178;28;19982;-68
2022/01/20 11:14:03;;;;;;;;;;;;;;;;;;5051053;28;19932;-68
2022/01/20 11:16:30;;;;;;;;;;;;;;;;;;5051148;28;19943;-68
2022/01/20 11:18:57;;;;;;;;;;;;;;;;;;5049842;28;20105;-67
2022/01/20 11:21:24;;;;;;;;;;;;;;;;;;5046471;28;19932;-67
2022/01/20 11:23:51;;;;;;;;;;;;;;;;;;5042861;28;19929;-68
2022/01/20 11:26:18;;;;;;;;;;;;;;;;;;5043407;28;19931;-68
2022/01/20 11:28:45;;;;;;;;;;;;;;;;;;5047312;28;19929;-68
2022/01/20 11:31:12;;;;;;;;;;;;;;;;;;5049815;28;19925;-68
2022/01/20 11:33:39;;;;;;;;;;;;;;;;;;5043683;28;20279;-68
2022/01/20 11:36:06;;;;;;;;;;;;;;;;;;5049436;28;20203;-69
2022/01/20 11:38:33;;;;;;;;;;;;;;;;;;5045376;28;20024;-68
2022/01/20 11:41:02;;;;;;;;;;;;;;;;;;5049330;28;19929;-68
2022/01/20 11:43:29;;;;;;;;;;;;;;;;;;5049924;28;19964;-67
2022/01/20 11:45:56;;;;;;;;;;;;;;;;;;5047940;28;19994;-68
2022/01/20 11:48:23;;;;;;;;;;;;;;;;;;5047022;28;19959;-69
2022/01/20 11:50:50;;;;;;;;;;;;;;;;;;5044415;28;20295;-69
2022/01/20 11:53:17;;;;;;;;;;;;;;;;;;5046032;28;19932;-68
2022/01/20 11:55:44;;;;;;;;;;;;;;;;;;5047795;28;19924;-68
2022/01/20 11:58:11;;;;;;;;;;;;;;;;;;5042700;28;19935;-67
2022/01/20 12:00:38;;;;;;;;;;;;;;;;;;5044159;28;20326;-67
2022/01/20 12:03:05;;;;;;;;;;;;;;;;;;5042806;28;19932;-68
2022/01/20 12:05:34;;;;;;;;;;;;;;;;;;5045701;28;20287;-68
2022/01/20 12:08:01;;;;;;;;;;;;;;;;;;5047683;28;20433;-68
2022/01/20 12:10:28;;;;;;;;;;;;;;;;;;5047783;28;19940;-68
2022/01/20 12:12:55;;;;;;;;;;;;;;;;;;5042860;28;19925;-68
2022/01/20 12:15:22;;;;;;;;;;;;;;;;;;5049596;28;19933;-69
2022/01/20 12:17:49;;;;;;;;;;;;;;;;;;5046638;28;19979;-68
2022/01/20 12:20:16;;;;;;;;;;;;;;;;;;5043311;28;20531;-68
2022/01/20 12:22:43;;;;;;;;;;;;;;;;;;5047120;28;20390;-68
2022/01/20 12:25:10;;;;;;;;;;;;;;;;;;5043158;28;20314;-69
2022/01/20 12:27:37;;;;;;;;;;;;;;;;;;5044425;28;19928;-67
2022/01/20 12:30:04;;;;;;;;;;;;;;;;;;5047405;28;20375;-67
2022/01/20 12:32:31;;;;;;;;;;;;;;;;;;5042642;28;19925;-67
2022/01/20 12:34:58;;;;;;;;;;;;;;;;;;5042001;28;20218;-67
2022/01/20 12:37:25;;;;;;;;;;;;;;;;;;5043741;28;20410;-68
2022/01/20 12:39:52;;;;;;;;;;;;;;;;;;5048188;28;19932;-68
2022/01/20 12:42:19;;;;;;;;;;;;;;;;;;5043431;28;19929;-67
2022/01/20 12:44:48;;;;;;;;;;;;;;;;;;5044117;28;19986;-68
2022/01/20 12:47:15;;;;;;;;;;;;;;;;;;5044868;28;19931;-70
2022/01/20 12:49:42;;;;;;;;;;;;;;;;;;5036682;28;20294;-71
2022/01/20 12:52:09;;;;;;;;;;;;;;;;;;5048167;28;20031;-71
2022/01/20 12:54:36;;;;;;;;;;;;;;;;;;5042053;28;19935;-71
2022/01/20 12:57:03;;;;;;;;;;;;;;;;;;5045214;28;19925;-69
2022/01/20 12:59:30;;;;;;;;;;;;;;;;;;5040563;28;19971;-71
2022/01/20 13:01:59;;;;;;;;;;;;;;;;;;5044957;28;19931;-68
2022/01/20 13:04:26;;;;;;;;;;;;;;;;;;5045643;28;19931;-68
2022/01/20 13:06:55;;;;;;;;;;;;;;;;;;5046437;28;19935;-67
2022/01/20 13:09:26;;;;;;;;;;;;;;;;;;5046084;28;19943;-68
2022/01/20 13:11:56;;;;;;;;;;;;;;;;;;5044628;28;19939;-68
2022/01/20 13:14:23;;;;;;;;;;;;;;;;;;5040541;28;19924;-69
2022/01/20 13:16:50;;;;;;;;;;;;;;;;;;5038042;28;19931;-68
2022/01/20 13:19:17;;;;;;;;;;;;;;;;;;5042580;28;19928;-67
2022/01/20 13:21:46;;;;;;;;;;;;;;;;;;5063101;22;20287;-73
2022/01/20 13:24:17;;;;;;;;;;;;;;;;;;5050381;28;19936;-73
2022/01/20 13:26:44;;;;;;;;;;;;;;;;;;5050244;28;20295;-73
2022/01/20 13:29:10;;;;;;;;;;;;;;;;;;5056942;28;19925;-74
2022/01/20 13:31:37;;;;;;;;;;;;;;;;;;5053860;28;19925;-71
2022/01/20 13:34:04;;;;;;;;;;;;;;;;;;5051899;28;19931;-72
2022/01/20 13:36:31;;;;;;;;;;;;;;;;;;5048564;28;20294;-72
2022/01/20 13:39:00;;;;;;;;;;;;;;;;;;5058384;28;19924;-71
2022/01/20 13:41:27;;;;;;;;;;;;;;;;;;5047540;28;20361;-69
2022/01/20 13:46:40;;;;;;;;;;;;;;;;;;5048775;28;20006;-69
2022/01/20 13:49:07;;;;;;;;;;;;;;;;;;5051152;28;20012;-70
2022/01/20 13:51:34;;;;;;;;;;;;;;;;;;5051644;28;20506;-70
2022/01/20 13:54:01;;;;;;;;;;;;;;;;;;5051672;28;20274;-70
2022/01/20 13:56:28;;;;;;;;;;;;;;;;;;5051644;28;20322;-70
2022/01/20 13:58:55;;;;;;;;;;;;;;;;;;5055957;28;19924;-68
2022/01/20 14:01:24;;;;;;;;;;;;;;;;;;5049071;28;19974;-69
2022/01/20 14:03:51;;;;;;;;;;;;;;;;;;5054388;28;19925;-69
2022/01/20 14:06:18;;;;;;;;;;;;;;;;;;5041093;28;19925;-69
2022/01/20 14:08:45;;;;;;;;;;;;;;;;;;5047863;28;20296;-68
2022/01/20 14:11:12;;;;;;;;;;;;;;;;;;5046296;28;20110;-71
2022/01/20 14:13:38;;;;;;;;;;;;;;;;;;5046177;28;20301;-71
2022/01/20 14:16:05;;;;;;;;;;;;;;;;;;5054695;28;19924;-70
2022/01/20 14:18:41;;;;;;;;;;;;;;;;;;5046524;28;19939;-71
2022/01/20 14:21:08;;;;;;;;;;;;;;;;;;5050921;28;19956;-71
2022/01/20 14:23:35;;;;;;;;;;;;;;;;;;5051718;28;19931;-71
2022/01/20 14:26:02;;;;;;;;;;;;;;;;;;5050788;28;20302;-70
2022/01/20 14:28:29;;;;;;;;;;;;;;;;;;5057147;28;19924;-70
2022/01/20 14:30:56;;;;;;;;;;;;;;;;;;5056474;28;20006;-71
2022/01/20 14:33:24;;;;;;;;;;;;;;;;;;5053559;28;19924;-72
2022/01/20 14:35:51;;;;;;;;;;;;;;;;;;5047185;28;19956;-69
2022/01/20 14:38:18;;;;;;;;;;;;;;;;;;5056578;28;20127;-71
2022/01/20 14:40:45;;;;;;;;;;;;;;;;;;5058366;28;19929;-69
2022/01/20 14:43:11;;;;;;;;;;;;;;;;;;5049620;28;20008;-69
2022/01/20 14:45:38;;;;;;;;;;;;;;;;;;5053415;28;19925;-70
2022/01/20 14:48:05;;;;;;;;;;;;;;;;;;5058573;28;19925;-71
2022/01/20 14:50:32;;;;;;;;;;;;;;;;;;5058013;28;19940;-71
2022/01/20 14:52:59;;;;;;;;;;;;;;;;;;5048537;28;19925;-69
2022/01/20 14:55:26;;;;;;;;;;;;;;;;;;5051968;28;19968;-69
2022/01/20 14:57:53;;;;;;;;;;;;;;;;;;5052204;28;20038;-70
2022/01/20 15:00:20;;;;;;;;;;;;;;;;;;5058361;28;20370;-70
2022/01/20 15:02:48;;;;;;;;;;;;;;;;;;5049439;28;19943;-70
2022/01/20 15:05:15;;;;;;;;;;;;;;;;;;5052280;28;20019;-70
2022/01/20 15:07:41;;;;;;;;;;;;;;;;;;5054471;28;19931;-70
2022/01/20 15:10:08;;;;;;;;;;;;;;;;;;5059439;28;20428;-70
2022/01/20 15:12:36;;;;;;;;;;;;;;;;;;5062785;28;19925;-70
2022/01/20 15:15:03;;;;;;;;;;;;;;;;;;5057390;28;20354;-69
2022/01/20 15:17:30;;;;;;;;;;;;;;;;;;5052301;28;19931;-69
2022/01/20 15:19:57;;;;;;;;;;;;;;;;;;5061362;28;19932;-70
2022/01/20 15:22:24;;;;;;;;;;;;;;;;;;5047513;28;19980;-71
2022/01/20 15:24:51;;;;;;;;;;;;;;;;;;5046765;28;19933;-71
2022/01/20 15:27:18;;;;;;;;;;;;;;;;;;5057597;28;19939;-70
2022/01/20 15:29:45;;;;;;;;;;;;;;;;;;5058819;28;19987;-70
2022/01/20 15:32:12;;;;;;;;;;;;;;;;;;5053417;28;19929;-70
2022/01/20 15:34:39;;;;;;;;;;;;;;;;;;5058428;28;19931;-70
2022/01/20 15:37:06;;;;;;;;;;;;;;;;;;5047279;28;19929;-70
2022/01/20 15:39:33;;;;;;;;;;;;;;;;;;5045799;28;20283;-70
2022/01/20 15:42:00;;;;;;;;;;;;;;;;;;5055317;28;19925;-69
2022/01/20 15:44:30;;;;;;;;;;;;;;;;;;5047416;28;19924;-70
2022/01/20 15:46:57;;;;;;;;;;;;;;;;;;5057573;28;20413;-70
2022/01/20 15:49:24;;;;;;;;;;;;;;;;;;5050075;28;19931;-71
2022/01/20 15:51:51;;;;;;;;;;;;;;;;;;5050313;28;20089;-70
2022/01/20 15:54:18;;;;;;;;;;;;;;;;;;5054181;28;20015;-70
2022/01/20 15:56:45;;;;;;;;;;;;;;;;;;5055293;28;19924;-71
2022/01/20 15:59:13;;;;;;;;;;;;;;;;;;5057702;28;19932;-71
2022/01/20 16:01:40;;;;;;;;;;;;;;;;;;5059003;28;20026;-69
2022/01/20 16:04:07;;;;;;;;;;;;;;;;;;5049723;28;20012;-70
2022/01/20 16:06:34;;;;;;;;;;;;;;;;;;5051226;28;19925;-70
2022/01/20 16:09:01;;;;;;;;;;;;;;;;;;5053678;28;19932;-70
2022/01/20 16:11:29;;;;;;;;;;;;;;;;;;5057220;28;19975;-70
2022/01/20 16:13:56;;;;;;;;;;;;;;;;;;5059265;28;19925;-70
2022/01/20 16:16:23;;;;;;;;;;;;;;;;;;5055364;28;19928;-69
2022/01/20 16:18:50;;;;;;;;;;;;;;;;;;5050837;28;19924;-70
2022/01/20 16:21:17;;;;;;;;;;;;;;;;;;5047023;28;19933;-70
2022/01/20 16:23:45;;;;;;;;;;;;;;;;;;5042838;28;20016;-70
2022/01/20 16:26:12;;;;;;;;;;;;;;;;;;5043388;28;20350;-69
2022/01/20 16:28:39;;;;;;;;;;;;;;;;;;5051491;28;19931;-68
2022/01/20 16:31:06;;;;;;;;;;;;;;;;;;5054199;28;20390;-69
2022/01/20 16:33:34;;;;;;;;;;;;;;;;;;5049873;28;19948;-69
2022/01/20 16:36:01;;;;;;;;;;;;;;;;;;5055923;28;19970;-67
2022/01/20 16:38:28;;;;;;;;;;;;;;;;;;5045694;28;19929;-67
2022/01/20 16:40:55;;;;;;;;;;;;;;;;;;5053556;28;19930;-68
2022/01/20 16:43:22;;;;;;;;;;;;;;;;;;5050456;28;19932;-68
2022/01/20 16:45:49;;;;;;;;;;;;;;;;;;5053618;28;19925;-67
2022/01/20 16:48:16;;;;;;;;;;;;;;;;;;5055196;28;19935;-72
2022/01/20 16:50:43;;;;;;;;;;;;;;;;;;5053522;28;20361;-74
2022/01/20 16:53:10;;;;;;;;;;;;;;;;;;5048726;28;19925;-73
2022/01/20 16:55:37;;;;;;;;;;;;;;;;;;5053934;28;19971;-74
2022/01/20 16:58:04;;;;;;;;;;;;;;;;;;5043284;28;19986;-74
2022/01/20 17:00:31;;;;;;;;;;;;;;;;;;5041674;28;19932;-73
2022/01/20 17:03:09;;;;;;;;;;;;;;;;;;5051522;28;19929;-72
2022/01/20 17:05:36;;;;;;;;;;;;;;;;;;5049754;28;20492;-72
2022/01/20 17:08:03;;;;;;;;;;;;;;;;;;5059920;28;20465;-70
2022/01/20 17:10:30;;;;;;;;;;;;;;;;;;5053721;28;20031;-72
2022/01/20 17:12:57;;;;;;;;;;;;;;;;;;5051082;28;20305;-71
2022/01/20 17:15:24;;;;;;;;;;;;;;;;;;5055579;28;19925;-71
2022/01/20 17:17:54;;;;;;;;;;;;;;;;;;5054127;28;19925;-73
2022/01/20 17:20:21;;;;;;;;;;;;;;;;;;5051581;28;19932;-73
2022/01/20 17:22:48;;;;;;;;;;;;;;;;;;5046560;28;19940;-73
2022/01/20 17:25:15;;;;;;;;;;;;;;;;;;5050964;28;19924;-73
2022/01/20 17:27:45;;;;;;;;;;;;;;;;;;5050427;28;20397;-73
2022/01/20 17:30:12;;;;;;;;;;;;;;;;;;5052002;28;19975;-71
2022/01/20 17:32:40;;;;;;;;;;;;;;;;;;5049677;28;19944;-71
2022/01/20 17:35:07;;;;;;;;;;;;;;;;;;5052900;28;20030;-72
2022/01/20 17:37:34;;;;;;;;;;;;;;;;;;5058506;28;19934;-72